Terminal Aerodrome Forecast
Issued by NWS

Home | Current Version | Previous Version | Text Only | Print | Product List | Glossary On
Versions: 1 2 3 4 5 6 7 8 9 10 11 12 13
000
FTUS44 KTSA 290300 AAA
TAFMLC
TAF AMD
KMLC 290336Z 2904/2924 19011G20KT P6SM FEW250 WS012/19055KT
     FM291200 19012KT P6SM SCT010
     FM291500 20015G25KT P6SM SKC=

USA.gov is the U.S. government's official web portal to all federal, state and local government web resources and services.